createdAt,value
2023-02-15T00:00:03.397Z,249.894
2023-02-15T00:05:03.417Z,183.409
2023-02-15T00:10:03.399Z,209.48000000000002
2023-02-15T00:15:01.303Z,210.546
2023-02-15T00:20:01.391Z,210.043
2023-02-15T00:25:01.502Z,200.936
2023-02-15T00:30:01.408Z,199.833
2023-02-15T00:35:01.418Z,929.986
2023-02-15T00:40:01.369Z,2310.987
2023-02-15T00:45:01.386Z,2309.952
2023-02-15T00:50:01.358Z,2218.233
2023-02-15T00:55:01.332Z,2130.261
2023-02-15T01:00:01.437Z,2112.042
2023-02-15T01:05:01.538Z,4483
2023-02-15T01:10:01.388Z,4797.908
2023-02-15T01:15:01.399Z,4794.003
2023-02-15T01:20:01.376Z,4845.408
2023-02-15T01:25:01.453Z,4913.673
2023-02-15T01:30:01.517Z,4910.726
2023-02-15T01:35:01.395Z,4849.061
2023-02-15T01:40:01.445Z,4789.244
2023-02-15T01:45:01.430Z,4814.826
2023-02-15T01:50:01.551Z,4823.811
2023-02-15T01:55:01.386Z,6322.006
2023-02-15T02:00:01.505Z,6827.93
2023-02-15T02:05:01.479Z,6826.811
2023-02-15T02:10:01.454Z,6978.99
2023-02-15T02:15:01.684Z,5685.441
2023-02-15T02:20:01.406Z,4891.246
2023-02-15T02:25:01.481Z,4803.271
2023-02-15T02:30:01.717Z,4801.657
2023-02-15T02:35:01.660Z,4833.0380000000005
2023-02-15T02:40:01.664Z,4832.211
2023-02-15T02:45:01.675Z,4839.282
2023-02-15T02:50:01.652Z,4820.991
2023-02-15T02:55:01.649Z,4908.81
2023-02-15T03:00:01.878Z,4778.956
2023-02-15T03:05:01.637Z,5505.406
2023-02-15T03:10:01.640Z,5789.832
2023-02-15T03:15:01.675Z,5382.32
2023-02-15T03:20:01.692Z,5059.478
2023-02-15T03:25:01.676Z,3125.967
2023-02-15T03:30:01.779Z,2121.489
2023-02-15T03:35:01.682Z,2149.973
2023-02-15T03:40:01.651Z,215.83100000000002
2023-02-15T03:45:01.686Z,291.147
2023-02-15T03:50:01.623Z,284.271
2023-02-15T03:55:01.675Z,234.269
2023-02-15T04:00:01.663Z,173.107
2023-02-15T04:05:01.661Z,197.487
2023-02-15T04:10:01.676Z,196.792
2023-02-15T04:15:01.687Z,196.894
2023-02-15T04:20:01.615Z,196.763
2023-02-15T04:25:01.620Z,182.005
2023-02-15T04:30:01.661Z,324.495
2023-02-15T04:35:01.609Z,2293.498
2023-02-15T04:40:01.613Z,2281.114
2023-02-15T04:45:01.559Z,2204.254
2023-02-15T04:50:01.576Z,2045.7160000000001
2023-02-15T04:55:01.585Z,171.793
2023-02-15T05:00:01.667Z,171.56900000000002
2023-02-15T05:05:01.636Z,179.917
2023-02-15T05:10:01.625Z,190.04
2023-02-15T05:15:01.647Z,283.914
2023-02-15T05:20:01.613Z,326.913
2023-02-15T05:25:01.712Z,314.785
2023-02-15T05:30:01.700Z,236.341
2023-02-15T05:35:01.621Z,196.629
2023-02-15T05:40:01.713Z,670.251
2023-02-15T05:45:01.900Z,2266.547
2023-02-15T05:50:01.740Z,2277.902
2023-02-15T05:55:01.841Z,2359.5750000000003
2023-02-15T06:00:01.775Z,2585.526
2023-02-15T06:05:01.627Z,3064.042
2023-02-15T06:10:01.696Z,1830.584
2023-02-15T06:15:01.652Z,431.095
2023-02-15T06:20:01.743Z,346.222
2023-02-15T06:25:01.733Z,330.508
2023-02-15T06:30:02.084Z,277.033
2023-02-15T06:35:01.713Z,260.831
2023-02-15T06:40:03.722Z,212.15800000000002
2023-02-15T06:45:01.641Z,201.544
2023-02-15T06:50:01.749Z,293.674
2023-02-15T06:55:01.759Z,322.323
2023-02-15T07:00:01.801Z,1045.212
2023-02-15T07:05:01.803Z,2191.809
2023-02-15T07:10:01.773Z,2229.3450000000003
2023-02-15T07:15:01.716Z,2255.088
2023-02-15T07:20:01.704Z,2266.169
2023-02-15T07:25:01.736Z,2382.6330000000003
2023-02-15T07:30:01.805Z,2839.294
2023-02-15T07:35:01.763Z,352.42400000000004
2023-02-15T07:40:01.805Z,328.56600000000003
2023-02-15T07:45:01.697Z,319.92
2023-02-15T07:50:01.761Z,282.197
2023-02-15T07:55:01.734Z,207.558
2023-02-15T08:00:01.825Z,194.107
2023-02-15T08:05:01.773Z,183.867
2023-02-15T08:10:01.789Z,184.629
2023-02-15T08:15:01.751Z,184.495
2023-02-15T08:20:01.795Z,184.25300000000001
2023-02-15T08:25:01.837Z,279.896
2023-02-15T08:30:02.124Z,299.761
2023-02-15T08:35:01.803Z,2106.21
2023-02-15T08:40:01.963Z,2211.044
2023-02-15T08:45:01.951Z,2223.089
2023-02-15T08:50:02.066Z,1876.286
2023-02-15T08:55:01.913Z,201.547
2023-02-15T09:00:01.984Z,211.609
2023-02-15T09:05:01.976Z,209.917
2023-02-15T09:10:02.025Z,259.284
2023-02-15T09:15:01.941Z,320.247
2023-02-15T09:20:01.944Z,296.146
2023-02-15T09:25:01.911Z,240.185
2023-02-15T09:30:02.126Z,185.973
2023-02-15T09:35:01.935Z,186.18800000000002
2023-02-15T09:40:01.921Z,186.451
2023-02-15T09:45:01.905Z,186.964
2023-02-15T09:50:01.883Z,1257.907
2023-02-15T09:55:01.996Z,2058.753
2023-02-15T10:00:01.900Z,2383.4120000000003
2023-02-15T10:05:01.879Z,2392.853
2023-02-15T10:10:01.874Z,2522.606
2023-02-15T10:15:01.918Z,2832.37
2023-02-15T10:20:01.894Z,211.529
2023-02-15T10:25:01.875Z,210.433
2023-02-15T10:30:01.984Z,201.038
2023-02-15T10:35:01.902Z,186.76500000000001
2023-02-15T10:40:01.907Z,186.324
2023-02-15T10:45:01.912Z,267.89
2023-02-15T10:50:01.912Z,302.67
2023-02-15T10:55:01.904Z,296.226
2023-02-15T11:00:01.934Z,219.803
2023-02-15T11:05:01.941Z,186.727
2023-02-15T11:10:01.887Z,187.924
2023-02-15T11:15:01.913Z,187.65800000000002
2023-02-15T11:20:01.930Z,188.09300000000002
2023-02-15T11:25:01.888Z,211.55700000000002
2023-02-15T11:30:02.023Z,243.455
2023-02-15T11:35:01.928Z,335.12600000000003
2023-02-15T11:40:01.926Z,685.289
2023-02-15T11:45:01.983Z,2331.724
2023-02-15T11:50:01.928Z,2234.123
2023-02-15T11:55:01.967Z,2239.533
2023-02-15T12:00:02.029Z,2812.453
2023-02-15T12:05:01.985Z,600.028
2023-02-15T12:10:01.943Z,186.249
2023-02-15T12:15:01.930Z,186.403
2023-02-15T12:20:02.000Z,246.668
2023-02-15T12:25:02.114Z,296.306
2023-02-15T12:30:02.080Z,285.05400000000003
2023-02-15T12:35:01.994Z,250.427
2023-02-15T12:40:02.046Z,210.245
2023-02-15T12:45:02.041Z,211.352
2023-02-15T12:50:01.952Z,206.72
2023-02-15T12:55:02.006Z,198.592
2023-02-15T13:00:02.027Z,197.39000000000001
2023-02-15T13:05:02.004Z,196.636
2023-02-15T13:20:02.173Z,306.627
2023-02-15T13:25:02.052Z,2187.9
2023-02-15T13:30:02.038Z,1989.018
2023-02-15T13:35:02.066Z,2194.579
2023-02-15T13:40:02.074Z,2419.838
2023-02-15T13:45:02.399Z,2091.35
2023-02-15T13:50:02.199Z,171.747
2023-02-15T13:55:02.190Z,218.02700000000002
2023-02-15T14:00:02.214Z,290.366
2023-02-15T14:05:02.264Z,282.224
2023-02-15T14:10:02.274Z,256.973
2023-02-15T14:15:02.226Z,196.651
2023-02-15T14:20:02.269Z,196.317
2023-02-15T14:25:02.157Z,196.00900000000001
2023-02-15T14:30:02.193Z,183.953
2023-02-15T14:35:02.183Z,171.924
2023-02-15T14:40:02.104Z,172.064
2023-02-15T14:45:02.081Z,766.996
2023-02-15T14:50:02.163Z,2295.071
2023-02-15T14:55:02.056Z,2281.567
2023-02-15T15:00:02.163Z,2213.552
2023-02-15T15:05:02.126Z,337.649
2023-02-15T15:10:02.141Z,171.213
2023-02-15T15:15:02.097Z,169.98
2023-02-15T15:20:02.165Z,191.431
2023-02-15T15:25:02.223Z,207.31900000000002
2023-02-15T15:30:02.275Z,380.548
2023-02-15T15:35:02.109Z,505.416
2023-02-15T15:40:02.130Z,527.044
2023-02-15T15:45:02.081Z,474.714
2023-02-15T15:50:02.176Z,919.357
2023-02-15T15:55:02.144Z,2375.88
2023-02-15T16:00:02.277Z,2376.318
2023-02-15T16:05:02.154Z,2374.4230000000002
2023-02-15T16:10:02.183Z,2465.7960000000003
2023-02-15T16:15:02.201Z,2388.006
2023-02-15T16:20:02.190Z,3046.661
2023-02-15T16:25:02.176Z,652.594
2023-02-15T16:30:02.328Z,1525.675
2023-02-15T16:35:02.225Z,1430.751
2023-02-15T16:40:02.272Z,4424.495
2023-02-15T16:45:02.147Z,4821.941
2023-02-15T16:50:02.341Z,2651.416
2023-02-15T16:55:02.221Z,2398.9210000000003
2023-02-15T17:00:02.219Z,2427.35
2023-02-15T17:05:02.229Z,2733.311
2023-02-15T17:10:02.328Z,2812.391
2023-02-15T17:15:02.208Z,4473.5650000000005
2023-02-15T17:20:02.365Z,4437.049
2023-02-15T17:25:02.242Z,4376.116
2023-02-15T17:30:02.442Z,4293.454
2023-02-15T17:35:02.314Z,2864.998
2023-02-15T17:40:02.241Z,2012.301
2023-02-15T17:45:02.292Z,433.355
2023-02-15T17:50:02.380Z,353.716
2023-02-15T17:55:02.318Z,509.584
2023-02-15T18:00:02.232Z,564.434
2023-02-15T18:05:02.311Z,954.181
2023-02-15T18:10:02.381Z,832.523
2023-02-15T18:15:02.283Z,599.672
2023-02-15T18:20:03.094Z,478.3
2023-02-15T18:25:02.304Z,476.981
2023-02-15T18:30:02.706Z,1097.866
2023-02-15T18:35:02.345Z,2441.626
2023-02-15T18:40:02.236Z,2453.697
2023-02-15T18:45:02.308Z,2388.531
2023-02-15T18:50:02.301Z,2344.067
2023-02-15T18:55:02.341Z,2584.87
2023-02-15T19:00:02.572Z,2533.385
2023-02-15T19:05:02.337Z,3144.58
2023-02-15T19:10:02.344Z,908.27
2023-02-15T19:15:02.375Z,476.189
2023-02-15T19:20:02.369Z,658.087
2023-02-15T19:25:02.389Z,1119.9080000000001
2023-02-15T19:30:02.416Z,441.632
2023-02-15T19:35:02.378Z,550.213
2023-02-15T19:40:02.347Z,556.443
2023-02-15T19:45:02.348Z,629.174
2023-02-15T19:50:02.370Z,509.148
2023-02-15T19:55:02.373Z,391.47700000000003
2023-02-15T20:00:12.502Z,2316.589
2023-02-15T20:05:02.475Z,3008.151
2023-02-15T20:10:02.320Z,2396.8070000000002
2023-02-15T20:15:02.377Z,2378.036
2023-02-15T20:20:02.382Z,2613.655
2023-02-15T20:25:02.408Z,2944.378
2023-02-15T20:30:02.435Z,424.834
2023-02-15T20:35:02.437Z,359.12600000000003
2023-02-15T20:40:02.373Z,285.886
2023-02-15T20:45:02.407Z,284.892
2023-02-15T20:50:02.426Z,285.332
2023-02-15T20:55:02.391Z,283.336
2023-02-15T21:00:02.500Z,281.467
2023-02-15T21:05:02.382Z,299.331
2023-02-15T21:10:02.442Z,349.249
2023-02-15T21:15:02.450Z,1110.146
2023-02-15T21:20:02.396Z,1911.8120000000001
2023-02-15T21:25:02.788Z,2199.3250000000003
2023-02-15T21:30:02.665Z,2274.606
2023-02-15T21:35:02.435Z,2295.379
2023-02-15T21:40:02.724Z,2897.872
2023-02-15T21:45:02.405Z,2761.5460000000003
2023-02-15T21:50:02.485Z,2752.2580000000003
2023-02-15T21:55:02.455Z,1657.443
2023-02-15T22:00:02.515Z,343.5
2023-02-15T22:05:02.463Z,319.713
2023-02-15T22:10:02.509Z,244.95600000000002
2023-02-15T22:15:02.447Z,181.63400000000001
2023-02-15T22:20:02.479Z,176.954
2023-02-15T22:25:02.471Z,180.379
2023-02-15T22:30:02.565Z,209.603
2023-02-15T22:35:02.496Z,252.604
2023-02-15T22:40:02.498Z,2227.132
2023-02-15T22:45:02.505Z,2294.427
2023-02-15T22:50:02.755Z,2343.543
2023-02-15T22:55:02.545Z,1669.44
2023-02-15T23:00:02.657Z,2279.371
2023-02-15T23:05:02.579Z,4537.504
2023-02-15T23:10:02.595Z,7364.682
2023-02-15T23:15:02.532Z,5538.537
2023-02-15T23:20:02.718Z,4786.419
2023-02-15T23:25:02.534Z,4790.59
2023-02-15T23:30:02.613Z,4796.041
2023-02-15T23:35:02.756Z,4891.919
2023-02-15T23:40:02.545Z,4880.67
2023-02-15T23:45:02.506Z,4866.313
2023-02-15T23:50:02.565Z,4775.191
2023-02-15T23:55:02.595Z,4775.124
